sensor_id;sensor_type;location;lat;lon;timestamp;P1;durP1;ratioP1;P2;durP2;ratioP2
14209;SDS011;7188;56.070;12.698;2023-12-14T00:00:32;3.53;;;3.23;;
14209;SDS011;7188;56.070;12.698;2023-12-14T00:02:57;4.37;;;3.50;;
14209;SDS011;7188;56.070;12.698;2023-12-14T00:05:23;4.50;;;3.83;;
14209;SDS011;7188;56.070;12.698;2023-12-14T00:07:49;3.97;;;3.57;;
14209;SDS011;7188;56.070;12.698;2023-12-14T00:10:15;3.80;;;3.30;;
14209;SDS011;7188;56.070;12.698;2023-12-14T00:12:43;4.80;;;4.20;;
14209;SDS011;7188;56.070;12.698;2023-12-14T00:15:08;3.33;;;3.03;;
14209;SDS011;7188;56.070;12.698;2023-12-14T00:17:34;4.83;;;3.40;;
14209;SDS011;7188;56.070;12.698;2023-12-14T00:22:54;3.37;;;3.07;;
14209;SDS011;7188;56.070;12.698;2023-12-14T00:25:19;3.63;;;3.10;;
14209;SDS011;7188;56.070;12.698;2023-12-14T00:27:45;3.67;;;3.33;;
14209;SDS011;7188;56.070;12.698;2023-12-14T00:30:10;4.40;;;3.60;;
14209;SDS011;7188;56.070;12.698;2023-12-14T00:32:36;4.73;;;3.67;;
14209;SDS011;7188;56.070;12.698;2023-12-14T00:35:02;3.40;;;3.10;;
14209;SDS011;7188;56.070;12.698;2023-12-14T00:37:27;3.53;;;3.23;;
14209;SDS011;7188;56.070;12.698;2023-12-14T00:39:53;4.53;;;3.17;;
14209;SDS011;7188;56.070;12.698;2023-12-14T00:42:19;4.10;;;3.30;;
14209;SDS011;7188;56.070;12.698;2023-12-14T00:44:45;3.70;;;3.40;;
14209;SDS011;7188;56.070;12.698;2023-12-14T00:47:10;3.50;;;3.20;;
14209;SDS011;7188;56.070;12.698;2023-12-14T00:49:36;3.77;;;3.07;;
14209;SDS011;7188;56.070;12.698;2023-12-14T00:52:02;3.87;;;3.37;;
14209;SDS011;7188;56.070;12.698;2023-12-14T00:54:29;4.37;;;3.97;;
14209;SDS011;7188;56.070;12.698;2023-12-14T00:56:54;3.30;;;3.00;;
14209;SDS011;7188;56.070;12.698;2023-12-14T00:59:20;4.20;;;3.60;;
14209;SDS011;7188;56.070;12.698;2023-12-14T01:01:45;3.67;;;2.97;;
14209;SDS011;7188;56.070;12.698;2023-12-14T01:04:11;3.50;;;3.20;;
14209;SDS011;7188;56.070;12.698;2023-12-14T01:06:37;3.30;;;3.07;;
14209;SDS011;7188;56.070;12.698;2023-12-14T01:09:02;5.47;;;3.90;;
14209;SDS011;7188;56.070;12.698;2023-12-14T01:11:28;4.00;;;3.37;;
14209;SDS011;7188;56.070;12.698;2023-12-14T01:13:54;3.77;;;3.33;;
14209;SDS011;7188;56.070;12.698;2023-12-14T01:16:19;5.17;;;3.50;;
14209;SDS011;7188;56.070;12.698;2023-12-14T01:18:45;3.90;;;3.57;;
14209;SDS011;7188;56.070;12.698;2023-12-14T01:21:10;3.97;;;3.03;;
14209;SDS011;7188;56.070;12.698;2023-12-14T01:23:37;3.00;;;2.80;;
14209;SDS011;7188;56.070;12.698;2023-12-14T01:26:03;4.10;;;3.30;;
14209;SDS011;7188;56.070;12.698;2023-12-14T01:31:12;4.10;;;3.27;;
14209;SDS011;7188;56.070;12.698;2023-12-14T01:33:38;3.50;;;3.20;;
14209;SDS011;7188;56.070;12.698;2023-12-14T01:36:04;4.13;;;3.13;;
14209;SDS011;7188;56.070;12.698;2023-12-14T01:38:29;3.63;;;3.27;;
14209;SDS011;7188;56.070;12.698;2023-12-14T01:40:55;4.60;;;3.33;;
14209;SDS011;7188;56.070;12.698;2023-12-14T01:43:21;4.33;;;3.20;;
14209;SDS011;7188;56.070;12.698;2023-12-14T01:45:47;3.57;;;3.27;;
14209;SDS011;7188;56.070;12.698;2023-12-14T01:48:12;3.70;;;3.10;;
14209;SDS011;7188;56.070;12.698;2023-12-14T01:50:38;2.70;;;2.50;;
14209;SDS011;7188;56.070;12.698;2023-12-14T01:53:03;3.40;;;3.10;;
14209;SDS011;7188;56.070;12.698;2023-12-14T01:55:29;2.93;;;2.67;;
14209;SDS011;7188;56.070;12.698;2023-12-14T01:57:54;3.63;;;3.33;;
14209;SDS011;7188;56.070;12.698;2023-12-14T02:01:03;3.47;;;3.17;;
14209;SDS011;7188;56.070;12.698;2023-12-14T02:03:28;4.03;;;3.23;;
14209;SDS011;7188;56.070;12.698;2023-12-14T02:05:53;3.10;;;2.77;;
14209;SDS011;7188;56.070;12.698;2023-12-14T02:08:19;3.87;;;3.23;;
14209;SDS011;7188;56.070;12.698;2023-12-14T02:10:45;3.77;;;3.40;;
14209;SDS011;7188;56.070;12.698;2023-12-14T02:13:10;3.83;;;3.30;;
14209;SDS011;7188;56.070;12.698;2023-12-14T02:15:36;3.07;;;2.77;;
14209;SDS011;7188;56.070;12.698;2023-12-14T02:18:01;3.70;;;3.40;;
14209;SDS011;7188;56.070;12.698;2023-12-14T02:20:27;3.43;;;3.13;;
14209;SDS011;7188;56.070;12.698;2023-12-14T02:22:53;4.00;;;3.63;;
14209;SDS011;7188;56.070;12.698;2023-12-14T02:25:19;3.50;;;2.90;;
14209;SDS011;7188;56.070;12.698;2023-12-14T02:27:45;4.33;;;3.70;;
14209;SDS011;7188;56.070;12.698;2023-12-14T02:33:33;3.97;;;3.27;;
14209;SDS011;7188;56.070;12.698;2023-12-14T02:35:59;3.57;;;3.20;;
14209;SDS011;7188;56.070;12.698;2023-12-14T02:38:25;4.30;;;2.93;;
14209;SDS011;7188;56.070;12.698;2023-12-14T02:40:51;6.33;;;3.33;;
14209;SDS011;7188;56.070;12.698;2023-12-14T02:43:17;3.30;;;3.00;;
14209;SDS011;7188;56.070;12.698;2023-12-14T02:45:44;3.40;;;3.10;;
14209;SDS011;7188;56.070;12.698;2023-12-14T02:48:09;3.80;;;3.40;;
14209;SDS011;7188;56.070;12.698;2023-12-14T02:50:35;4.13;;;3.77;;
14209;SDS011;7188;56.070;12.698;2023-12-14T02:53:01;4.27;;;3.50;;
14209;SDS011;7188;56.070;12.698;2023-12-14T02:55:26;3.67;;;3.37;;
14209;SDS011;7188;56.070;12.698;2023-12-14T02:57:52;3.43;;;3.13;;
14209;SDS011;7188;56.070;12.698;2023-12-14T03:00:17;3.70;;;2.93;;
14209;SDS011;7188;56.070;12.698;2023-12-14T03:02:43;3.63;;;3.20;;
14209;SDS011;7188;56.070;12.698;2023-12-14T03:05:08;4.10;;;3.40;;
14209;SDS011;7188;56.070;12.698;2023-12-14T03:07:34;3.40;;;3.10;;
14209;SDS011;7188;56.070;12.698;2023-12-14T03:10:00;4.03;;;3.23;;
14209;SDS011;7188;56.070;12.698;2023-12-14T03:12:25;4.53;;;3.63;;
14209;SDS011;7188;56.070;12.698;2023-12-14T03:14:51;4.63;;;3.70;;
14209;SDS011;7188;56.070;12.698;2023-12-14T03:17:16;3.90;;;3.50;;
14209;SDS011;7188;56.070;12.698;2023-12-14T03:19:42;3.50;;;3.10;;
14209;SDS011;7188;56.070;12.698;2023-12-14T03:22:08;5.00;;;3.70;;
14209;SDS011;7188;56.070;12.698;2023-12-14T03:24:34;4.27;;;3.57;;
14209;SDS011;7188;56.070;12.698;2023-12-14T03:27:01;3.37;;;3.07;;
14209;SDS011;7188;56.070;12.698;2023-12-14T03:29:27;4.73;;;3.63;;
14209;SDS011;7188;56.070;12.698;2023-12-14T03:31:54;3.77;;;3.37;;
14209;SDS011;7188;56.070;12.698;2023-12-14T03:34:20;4.00;;;3.43;;
14209;SDS011;7188;56.070;12.698;2023-12-14T03:36:46;3.50;;;3.20;;
14209;SDS011;7188;56.070;12.698;2023-12-14T03:39:11;3.43;;;3.13;;
14209;SDS011;7188;56.070;12.698;2023-12-14T03:41:37;4.07;;;3.57;;
14209;SDS011;7188;56.070;12.698;2023-12-14T03:44:03;4.43;;;4.03;;
14209;SDS011;7188;56.070;12.698;2023-12-14T03:46:29;3.63;;;3.10;;
14209;SDS011;7188;56.070;12.698;2023-12-14T03:48:54;3.80;;;3.40;;
14209;SDS011;7188;56.070;12.698;2023-12-14T03:51:20;4.47;;;3.20;;
14209;SDS011;7188;56.070;12.698;2023-12-14T03:53:46;4.20;;;3.10;;
14209;SDS011;7188;56.070;12.698;2023-12-14T03:56:12;3.80;;;3.50;;
14209;SDS011;7188;56.070;12.698;2023-12-14T03:58:37;4.60;;;3.60;;
14209;SDS011;7188;56.070;12.698;2023-12-14T04:01:03;4.00;;;3.50;;
14209;SDS011;7188;56.070;12.698;2023-12-14T04:03:29;4.23;;;3.43;;
14209;SDS011;7188;56.070;12.698;2023-12-14T04:05:55;3.97;;;2.97;;
14209;SDS011;7188;56.070;12.698;2023-12-14T04:08:20;5.07;;;3.70;;
14209;SDS011;7188;56.070;12.698;2023-12-14T04:10:46;6.50;;;3.63;;
14209;SDS011;7188;56.070;12.698;2023-12-14T04:13:11;4.63;;;3.50;;
14209;SDS011;7188;56.070;12.698;2023-12-14T04:15:37;4.10;;;3.33;;
14209;SDS011;7188;56.070;12.698;2023-12-14T04:18:03;4.00;;;3.60;;
14209;SDS011;7188;56.070;12.698;2023-12-14T04:20:31;4.17;;;3.67;;
14209;SDS011;7188;56.070;12.698;2023-12-14T04:22:57;3.67;;;3.30;;
14209;SDS011;7188;56.070;12.698;2023-12-14T04:25:22;3.67;;;3.33;;
14209;SDS011;7188;56.070;12.698;2023-12-14T04:27:48;4.83;;;3.10;;
14209;SDS011;7188;56.070;12.698;2023-12-14T04:30:13;3.70;;;3.33;;
14209;SDS011;7188;56.070;12.698;2023-12-14T04:32:39;3.97;;;3.03;;
14209;SDS011;7188;56.070;12.698;2023-12-14T04:35:05;2.67;;;2.47;;
14209;SDS011;7188;56.070;12.698;2023-12-14T04:37:31;4.17;;;2.73;;
14209;SDS011;7188;56.070;12.698;2023-12-14T04:39:57;3.07;;;2.77;;
14209;SDS011;7188;56.070;12.698;2023-12-14T04:42:22;3.23;;;3.00;;
14209;SDS011;7188;56.070;12.698;2023-12-14T04:44:48;3.40;;;3.10;;
14209;SDS011;7188;56.070;12.698;2023-12-14T04:47:14;3.60;;;3.00;;
14209;SDS011;7188;56.070;12.698;2023-12-14T04:49:39;3.77;;;3.40;;
14209;SDS011;7188;56.070;12.698;2023-12-14T04:52:05;4.20;;;2.83;;
14209;SDS011;7188;56.070;12.698;2023-12-14T04:54:31;3.57;;;3.23;;
14209;SDS011;7188;56.070;12.698;2023-12-14T04:56:57;2.93;;;2.73;;
14209;SDS011;7188;56.070;12.698;2023-12-14T04:59:22;3.13;;;2.83;;
14209;SDS011;7188;56.070;12.698;2023-12-14T05:01:48;3.73;;;3.10;;
14209;SDS011;7188;56.070;12.698;2023-12-14T05:04:14;3.70;;;2.90;;
14209;SDS011;7188;56.070;12.698;2023-12-14T05:06:40;3.17;;;2.87;;
14209;SDS011;7188;56.070;12.698;2023-12-14T05:09:06;3.67;;;2.97;;
14209;SDS011;7188;56.070;12.698;2023-12-14T05:11:32;4.13;;;2.90;;
14209;SDS011;7188;56.070;12.698;2023-12-14T05:13:57;3.10;;;2.80;;
14209;SDS011;7188;56.070;12.698;2023-12-14T05:19:25;5.60;;;3.57;;
14209;SDS011;7188;56.070;12.698;2023-12-14T05:21:51;3.37;;;2.93;;
14209;SDS011;7188;56.070;12.698;2023-12-14T05:24:19;3.60;;;2.73;;
14209;SDS011;7188;56.070;12.698;2023-12-14T05:26:44;3.80;;;3.00;;
14209;SDS011;7188;56.070;12.698;2023-12-14T05:29:11;2.87;;;2.60;;
14209;SDS011;7188;56.070;12.698;2023-12-14T05:31:37;3.73;;;2.63;;
14209;SDS011;7188;56.070;12.698;2023-12-14T05:34:02;3.00;;;2.77;;
14209;SDS011;7188;56.070;12.698;2023-12-14T05:36:28;3.17;;;2.87;;
14209;SDS011;7188;56.070;12.698;2023-12-14T05:38:54;3.43;;;2.53;;
14209;SDS011;7188;56.070;12.698;2023-12-14T05:41:19;3.60;;;3.00;;
14209;SDS011;7188;56.070;12.698;2023-12-14T05:43:45;4.13;;;2.47;;
14209;SDS011;7188;56.070;12.698;2023-12-14T05:46:19;3.73;;;2.87;;
14209;SDS011;7188;56.070;12.698;2023-12-14T05:48:49;3.67;;;2.87;;
14209;SDS011;7188;56.070;12.698;2023-12-14T05:51:30;3.03;;;2.63;;
14209;SDS011;7188;56.070;12.698;2023-12-14T05:53:57;3.10;;;2.80;;
14209;SDS011;7188;56.070;12.698;2023-12-14T05:56:23;3.43;;;2.40;;
14209;SDS011;7188;56.070;12.698;2023-12-14T05:58:50;3.97;;;3.30;;
14209;SDS011;7188;56.070;12.698;2023-12-14T06:01:18;6.53;;;2.90;;
14209;SDS011;7188;56.070;12.698;2023-12-14T06:03:44;3.43;;;3.10;;
14209;SDS011;7188;56.070;12.698;2023-12-14T06:06:10;2.87;;;2.67;;
14209;SDS011;7188;56.070;12.698;2023-12-14T06:08:38;7.90;;;2.93;;
14209;SDS011;7188;56.070;12.698;2023-12-14T06:11:03;3.53;;;2.97;;
14209;SDS011;7188;56.070;12.698;2023-12-14T06:13:31;3.30;;;3.00;;
14209;SDS011;7188;56.070;12.698;2023-12-14T06:15:57;4.70;;;3.23;;
14209;SDS011;7188;56.070;12.698;2023-12-14T06:18:22;4.27;;;2.90;;
14209;SDS011;7188;56.070;12.698;2023-12-14T06:20:48;2.83;;;2.63;;
14209;SDS011;7188;56.070;12.698;2023-12-14T06:23:14;3.50;;;3.17;;
14209;SDS011;7188;56.070;12.698;2023-12-14T06:25:39;3.40;;;2.87;;
14209;SDS011;7188;56.070;12.698;2023-12-14T06:30:52;3.40;;;3.10;;
14209;SDS011;7188;56.070;12.698;2023-12-14T06:33:18;3.03;;;2.40;;
14209;SDS011;7188;56.070;12.698;2023-12-14T06:35:43;2.90;;;2.70;;
14209;SDS011;7188;56.070;12.698;2023-12-14T06:38:09;3.10;;;2.77;;
14209;SDS011;7188;56.070;12.698;2023-12-14T06:40:34;3.37;;;3.03;;
14209;SDS011;7188;56.070;12.698;2023-12-14T06:43:00;3.90;;;3.40;;
14209;SDS011;7188;56.070;12.698;2023-12-14T06:45:30;3.23;;;2.93;;
14209;SDS011;7188;56.070;12.698;2023-12-14T06:47:55;3.20;;;2.33;;
14209;SDS011;7188;56.070;12.698;2023-12-14T06:50:21;4.07;;;3.03;;
14209;SDS011;7188;56.070;12.698;2023-12-14T06:53:05;3.47;;;3.17;;
14209;SDS011;7188;56.070;12.698;2023-12-14T06:55:30;3.70;;;3.17;;
14209;SDS011;7188;56.070;12.698;2023-12-14T06:57:56;3.73;;;3.27;;
14209;SDS011;7188;56.070;12.698;2023-12-14T07:00:21;3.10;;;2.80;;
14209;SDS011;7188;56.070;12.698;2023-12-14T07:02:47;2.57;;;2.37;;
14209;SDS011;7188;56.070;12.698;2023-12-14T07:05:13;5.00;;;2.93;;
14209;SDS011;7188;56.070;12.698;2023-12-14T07:07:38;4.90;;;2.27;;
14209;SDS011;7188;56.070;12.698;2023-12-14T07:10:05;3.27;;;2.90;;
14209;SDS011;7188;56.070;12.698;2023-12-14T07:12:31;3.30;;;2.80;;
14209;SDS011;7188;56.070;12.698;2023-12-14T07:14:57;6.07;;;3.20;;
14209;SDS011;7188;56.070;12.698;2023-12-14T07:17:22;3.10;;;2.77;;
14209;SDS011;7188;56.070;12.698;2023-12-14T07:19:49;4.27;;;3.27;;
14209;SDS011;7188;56.070;12.698;2023-12-14T07:22:16;12.20;;;2.77;;
14209;SDS011;7188;56.070;12.698;2023-12-14T07:24:41;5.20;;;2.73;;
14209;SDS011;7188;56.070;12.698;2023-12-14T07:27:07;4.97;;;2.83;;
14209;SDS011;7188;56.070;12.698;2023-12-14T07:29:32;4.30;;;2.77;;
14209;SDS011;7188;56.070;12.698;2023-12-14T07:31:58;4.23;;;3.50;;
14209;SDS011;7188;56.070;12.698;2023-12-14T07:34:24;4.13;;;2.80;;
14209;SDS011;7188;56.070;12.698;2023-12-14T07:36:49;4.47;;;3.33;;
14209;SDS011;7188;56.070;12.698;2023-12-14T07:39:15;5.33;;;3.40;;
14209;SDS011;7188;56.070;12.698;2023-12-14T07:41:41;4.03;;;2.73;;
14209;SDS011;7188;56.070;12.698;2023-12-14T07:44:06;4.43;;;3.17;;
14209;SDS011;7188;56.070;12.698;2023-12-14T07:46:32;3.90;;;2.90;;
14209;SDS011;7188;56.070;12.698;2023-12-14T07:48:58;6.40;;;2.97;;
14209;SDS011;7188;56.070;12.698;2023-12-14T07:51:23;3.67;;;2.93;;
14209;SDS011;7188;56.070;12.698;2023-12-14T07:53:49;3.20;;;2.83;;
14209;SDS011;7188;56.070;12.698;2023-12-14T07:56:14;4.17;;;2.60;;
14209;SDS011;7188;56.070;12.698;2023-12-14T07:58:40;4.00;;;2.90;;
14209;SDS011;7188;56.070;12.698;2023-12-14T08:01:06;4.30;;;2.53;;
14209;SDS011;7188;56.070;12.698;2023-12-14T08:03:31;6.10;;;3.20;;
14209;SDS011;7188;56.070;12.698;2023-12-14T08:05:57;4.17;;;3.03;;
14209;SDS011;7188;56.070;12.698;2023-12-14T08:08:22;4.27;;;2.77;;
14209;SDS011;7188;56.070;12.698;2023-12-14T08:10:49;4.00;;;3.10;;
14209;SDS011;7188;56.070;12.698;2023-12-14T08:13:14;3.13;;;2.87;;
14209;SDS011;7188;56.070;12.698;2023-12-14T08:15:40;3.67;;;3.27;;
14209;SDS011;7188;56.070;12.698;2023-12-14T08:18:05;4.20;;;3.17;;
14209;SDS011;7188;56.070;12.698;2023-12-14T08:20:32;5.20;;;2.67;;
14209;SDS011;7188;56.070;12.698;2023-12-14T08:22:58;4.10;;;3.27;;
14209;SDS011;7188;56.070;12.698;2023-12-14T08:25:23;4.97;;;3.20;;
14209;SDS011;7188;56.070;12.698;2023-12-14T08:27:49;6.53;;;2.80;;
14209;SDS011;7188;56.070;12.698;2023-12-14T08:30:15;4.23;;;2.70;;
14209;SDS011;7188;56.070;12.698;2023-12-14T08:32:41;5.37;;;3.03;;
14209;SDS011;7188;56.070;12.698;2023-12-14T08:35:08;4.27;;;2.77;;
14209;SDS011;7188;56.070;12.698;2023-12-14T08:37:35;6.90;;;3.10;;
14209;SDS011;7188;56.070;12.698;2023-12-14T08:40:00;5.63;;;3.77;;
14209;SDS011;7188;56.070;12.698;2023-12-14T08:42:26;4.77;;;3.37;;
14209;SDS011;7188;56.070;12.698;2023-12-14T08:44:52;6.37;;;3.10;;
14209;SDS011;7188;56.070;12.698;2023-12-14T08:47:17;4.53;;;3.50;;
14209;SDS011;7188;56.070;12.698;2023-12-14T08:49:43;8.73;;;3.33;;
14209;SDS011;7188;56.070;12.698;2023-12-14T08:52:09;4.27;;;3.03;;
14209;SDS011;7188;56.070;12.698;2023-12-14T08:54:36;4.63;;;3.20;;
14209;SDS011;7188;56.070;12.698;2023-12-14T08:57:02;6.50;;;3.90;;
14209;SDS011;7188;56.070;12.698;2023-12-14T08:59:28;2.83;;;2.63;;
14209;SDS011;7188;56.070;12.698;2023-12-14T09:01:53;3.53;;;3.03;;
14209;SDS011;7188;56.070;12.698;2023-12-14T09:04:19;3.50;;;2.93;;
14209;SDS011;7188;56.070;12.698;2023-12-14T09:06:46;5.53;;;2.97;;
14209;SDS011;7188;56.070;12.698;2023-12-14T09:09:11;3.20;;;2.87;;
14209;SDS011;7188;56.070;12.698;2023-12-14T09:11:37;4.27;;;3.53;;
14209;SDS011;7188;56.070;12.698;2023-12-14T09:14:03;6.57;;;4.17;;
14209;SDS011;7188;56.070;12.698;2023-12-14T09:16:31;4.40;;;3.40;;
14209;SDS011;7188;56.070;12.698;2023-12-14T09:18:57;6.00;;;3.67;;
14209;SDS011;7188;56.070;12.698;2023-12-14T09:21:23;3.37;;;3.03;;
14209;SDS011;7188;56.070;12.698;2023-12-14T09:23:49;3.97;;;2.70;;
14209;SDS011;7188;56.070;12.698;2023-12-14T09:26:15;6.50;;;2.70;;
14209;SDS011;7188;56.070;12.698;2023-12-14T09:28:41;3.80;;;3.20;;
14209;SDS011;7188;56.070;12.698;2023-12-14T09:31:07;5.07;;;3.10;;
14209;SDS011;7188;56.070;12.698;2023-12-14T09:33:33;5.23;;;3.80;;
14209;SDS011;7188;56.070;12.698;2023-12-14T09:35:58;6.00;;;3.63;;
14209;SDS011;7188;56.070;12.698;2023-12-14T09:38:24;4.20;;;3.20;;
14209;SDS011;7188;56.070;12.698;2023-12-14T09:40:49;5.80;;;2.83;;
14209;SDS011;7188;56.070;12.698;2023-12-14T09:43:15;3.20;;;2.50;;
14209;SDS011;7188;56.070;12.698;2023-12-14T09:45:41;2.73;;;2.50;;
14209;SDS011;7188;56.070;12.698;2023-12-14T09:48:10;3.57;;;3.07;;
14209;SDS011;7188;56.070;12.698;2023-12-14T09:50:36;3.47;;;3.10;;
14209;SDS011;7188;56.070;12.698;2023-12-14T09:53:04;3.47;;;2.93;;
14209;SDS011;7188;56.070;12.698;2023-12-14T09:55:29;3.07;;;2.80;;
14209;SDS011;7188;56.070;12.698;2023-12-14T09:57:56;5.50;;;3.17;;
14209;SDS011;7188;56.070;12.698;2023-12-14T10:06:25;3.60;;;2.50;;
14209;SDS011;7188;56.070;12.698;2023-12-14T10:08:54;2.60;;;2.33;;
14209;SDS011;7188;56.070;12.698;2023-12-14T10:11:21;2.30;;;2.07;;
14209;SDS011;7188;56.070;12.698;2023-12-14T10:13:47;3.80;;;2.27;;
14209;SDS011;7188;56.070;12.698;2023-12-14T10:16:12;3.20;;;2.33;;
14209;SDS011;7188;56.070;12.698;2023-12-14T10:19:03;3.83;;;2.40;;
14209;SDS011;7188;56.070;12.698;2023-12-14T10:21:28;2.47;;;1.73;;
14209;SDS011;7188;56.070;12.698;2023-12-14T10:23:55;2.57;;;2.13;;
14209;SDS011;7188;56.070;12.698;2023-12-14T10:26:25;2.27;;;2.07;;
14209;SDS011;7188;56.070;12.698;2023-12-14T10:28:51;2.77;;;1.83;;
14209;SDS011;7188;56.070;12.698;2023-12-14T10:31:17;4.03;;;2.73;;
14209;SDS011;7188;56.070;12.698;2023-12-14T10:33:47;5.40;;;2.53;;
14209;SDS011;7188;56.070;12.698;2023-12-14T10:36:13;2.80;;;2.00;;
14209;SDS011;7188;56.070;12.698;2023-12-14T10:38:40;2.83;;;2.37;;
14209;SDS011;7188;56.070;12.698;2023-12-14T10:41:09;3.30;;;2.33;;
14209;SDS011;7188;56.070;12.698;2023-12-14T10:43:38;2.30;;;2.10;;
14209;SDS011;7188;56.070;12.698;2023-12-14T10:46:06;2.50;;;2.30;;
14209;SDS011;7188;56.070;12.698;2023-12-14T10:48:34;2.43;;;1.57;;
14209;SDS011;7188;56.070;12.698;2023-12-14T10:51:02;2.37;;;1.73;;
14209;SDS011;7188;56.070;12.698;2023-12-14T10:53:29;2.50;;;2.30;;
14209;SDS011;7188;56.070;12.698;2023-12-14T10:55:55;2.13;;;1.93;;
14209;SDS011;7188;56.070;12.698;2023-12-14T10:58:24;2.33;;;1.73;;
14209;SDS011;7188;56.070;12.698;2023-12-14T11:00:59;1.87;;;1.37;;
14209;SDS011;7188;56.070;12.698;2023-12-14T11:03:41;2.40;;;2.20;;
14209;SDS011;7188;56.070;12.698;2023-12-14T11:08:54;3.40;;;2.03;;
14209;SDS011;7188;56.070;12.698;2023-12-14T11:11:28;2.37;;;1.63;;
14209;SDS011;7188;56.070;12.698;2023-12-14T11:13:55;2.03;;;1.87;;
14209;SDS011;7188;56.070;12.698;2023-12-14T11:16:21;2.00;;;1.83;;
14209;SDS011;7188;56.070;12.698;2023-12-14T11:18:48;3.30;;;2.07;;
14209;SDS011;7188;56.070;12.698;2023-12-14T11:21:33;1.97;;;1.87;;
14209;SDS011;7188;56.070;12.698;2023-12-14T11:23:59;1.80;;;1.70;;
14209;SDS011;7188;56.070;12.698;2023-12-14T11:26:26;2.47;;;2.00;;
14209;SDS011;7188;56.070;12.698;2023-12-14T11:28:53;4.23;;;2.50;;
14209;SDS011;7188;56.070;12.698;2023-12-14T11:31:19;2.07;;;1.90;;
14209;SDS011;7188;56.070;12.698;2023-12-14T11:33:45;3.77;;;2.20;;
14209;SDS011;7188;56.070;12.698;2023-12-14T11:36:12;2.83;;;2.27;;
14209;SDS011;7188;56.070;12.698;2023-12-14T11:38:38;2.30;;;2.10;;
14209;SDS011;7188;56.070;12.698;2023-12-14T11:41:04;2.60;;;2.23;;
14209;SDS011;7188;56.070;12.698;2023-12-14T11:43:30;4.17;;;2.20;;
14209;SDS011;7188;56.070;12.698;2023-12-14T11:46:05;2.67;;;1.70;;
14209;SDS011;7188;56.070;12.698;2023-12-14T11:48:31;2.00;;;1.80;;
14209;SDS011;7188;56.070;12.698;2023-12-14T11:50:56;2.43;;;2.20;;
14209;SDS011;7188;56.070;12.698;2023-12-14T11:53:22;5.07;;;2.03;;
14209;SDS011;7188;56.070;12.698;2023-12-14T11:55:48;2.93;;;2.57;;
14209;SDS011;7188;56.070;12.698;2023-12-14T11:58:16;2.63;;;2.23;;
14209;SDS011;7188;56.070;12.698;2023-12-14T12:00:41;2.13;;;2.00;;
14209;SDS011;7188;56.070;12.698;2023-12-14T12:03:14;4.90;;;2.03;;
14209;SDS011;7188;56.070;12.698;2023-12-14T12:05:43;2.83;;;2.13;;
14209;SDS011;7188;56.070;12.698;2023-12-14T12:08:11;2.43;;;1.67;;
14209;SDS011;7188;56.070;12.698;2023-12-14T12:10:37;2.70;;;1.93;;
14209;SDS011;7188;56.070;12.698;2023-12-14T12:13:06;4.40;;;2.10;;
14209;SDS011;7188;56.070;12.698;2023-12-14T12:15:33;2.30;;;2.10;;
14209;SDS011;7188;56.070;12.698;2023-12-14T12:18:05;3.17;;;2.63;;
14209;SDS011;7188;56.070;12.698;2023-12-14T12:20:31;2.37;;;2.00;;
14209;SDS011;7188;56.070;12.698;2023-12-14T12:22:57;2.47;;;2.00;;
14209;SDS011;7188;56.070;12.698;2023-12-14T12:25:23;1.80;;;1.67;;
14209;SDS011;7188;56.070;12.698;2023-12-14T12:27:49;2.30;;;2.10;;
14209;SDS011;7188;56.070;12.698;2023-12-14T12:30:14;2.90;;;2.43;;
14209;SDS011;7188;56.070;12.698;2023-12-14T12:32:40;2.20;;;2.00;;
14209;SDS011;7188;56.070;12.698;2023-12-14T12:35:07;2.93;;;2.47;;
14209;SDS011;7188;56.070;12.698;2023-12-14T12:37:33;3.20;;;2.47;;
14209;SDS011;7188;56.070;12.698;2023-12-14T12:39:59;2.57;;;2.37;;
14209;SDS011;7188;56.070;12.698;2023-12-14T12:42:24;3.43;;;2.30;;
14209;SDS011;7188;56.070;12.698;2023-12-14T12:44:50;2.87;;;2.57;;
14209;SDS011;7188;56.070;12.698;2023-12-14T12:47:16;2.70;;;2.20;;
14209;SDS011;7188;56.070;12.698;2023-12-14T12:49:42;2.07;;;1.90;;
14209;SDS011;7188;56.070;12.698;2023-12-14T12:52:07;3.60;;;2.37;;
14209;SDS011;7188;56.070;12.698;2023-12-14T12:54:33;4.47;;;2.50;;
14209;SDS011;7188;56.070;12.698;2023-12-14T12:56:59;3.03;;;2.73;;
14209;SDS011;7188;56.070;12.698;2023-12-14T12:59:24;3.13;;;2.83;;
14209;SDS011;7188;56.070;12.698;2023-12-14T13:01:50;3.17;;;2.43;;
14209;SDS011;7188;56.070;12.698;2023-12-14T13:04:19;2.87;;;2.67;;
14209;SDS011;7188;56.070;12.698;2023-12-14T13:06:47;2.90;;;2.60;;
14209;SDS011;7188;56.070;12.698;2023-12-14T13:09:13;2.73;;;2.53;;
14209;SDS011;7188;56.070;12.698;2023-12-14T13:11:42;9.77;;;2.40;;
14209;SDS011;7188;56.070;12.698;2023-12-14T13:14:08;3.93;;;2.90;;
14209;SDS011;7188;56.070;12.698;2023-12-14T13:16:35;2.70;;;2.50;;
14209;SDS011;7188;56.070;12.698;2023-12-14T13:19:01;2.57;;;2.17;;
14209;SDS011;7188;56.070;12.698;2023-12-14T13:21:28;2.40;;;2.20;;
14209;SDS011;7188;56.070;12.698;2023-12-14T13:23:54;2.80;;;2.60;;
14209;SDS011;7188;56.070;12.698;2023-12-14T13:26:21;2.97;;;2.73;;
14209;SDS011;7188;56.070;12.698;2023-12-14T13:28:47;5.00;;;2.40;;
14209;SDS011;7188;56.070;12.698;2023-12-14T13:31:13;2.90;;;2.40;;
14209;SDS011;7188;56.070;12.698;2023-12-14T13:33:38;3.23;;;2.40;;
14209;SDS011;7188;56.070;12.698;2023-12-14T13:36:04;2.50;;;2.40;;
14209;SDS011;7188;56.070;12.698;2023-12-14T13:38:30;3.07;;;2.73;;
14209;SDS011;7188;56.070;12.698;2023-12-14T13:40:58;3.80;;;3.30;;
14209;SDS011;7188;56.070;12.698;2023-12-14T13:43:24;3.60;;;3.30;;
14209;SDS011;7188;56.070;12.698;2023-12-14T13:45:50;3.23;;;2.60;;
14209;SDS011;7188;56.070;12.698;2023-12-14T13:48:17;3.40;;;2.97;;
14209;SDS011;7188;56.070;12.698;2023-12-14T13:50:43;6.27;;;3.37;;
14209;SDS011;7188;56.070;12.698;2023-12-14T13:53:09;3.97;;;3.63;;
14209;SDS011;7188;56.070;12.698;2023-12-14T13:55:35;7.13;;;3.53;;
14209;SDS011;7188;56.070;12.698;2023-12-14T13:58:01;3.37;;;3.00;;
14209;SDS011;7188;56.070;12.698;2023-12-14T14:00:27;4.40;;;3.70;;
14209;SDS011;7188;56.070;12.698;2023-12-14T14:02:52;3.23;;;3.03;;
14209;SDS011;7188;56.070;12.698;2023-12-14T14:05:18;3.23;;;2.33;;
14209;SDS011;7188;56.070;12.698;2023-12-14T14:07:44;2.90;;;2.60;;
14209;SDS011;7188;56.070;12.698;2023-12-14T14:10:10;2.63;;;2.43;;
14209;SDS011;7188;56.070;12.698;2023-12-14T14:12:35;4.10;;;3.70;;
14209;SDS011;7188;56.070;12.698;2023-12-14T14:15:01;3.13;;;2.80;;
14209;SDS011;7188;56.070;12.698;2023-12-14T14:17:26;3.60;;;3.30;;
14209;SDS011;7188;56.070;12.698;2023-12-14T14:19:52;3.77;;;2.97;;
14209;SDS011;7188;56.070;12.698;2023-12-14T14:22:18;5.50;;;2.53;;
14209;SDS011;7188;56.070;12.698;2023-12-14T14:24:44;6.57;;;3.07;;
14209;SDS011;7188;56.070;12.698;2023-12-14T14:27:09;4.73;;;3.03;;
14209;SDS011;7188;56.070;12.698;2023-12-14T14:29:35;3.73;;;2.87;;
14209;SDS011;7188;56.070;12.698;2023-12-14T14:32:01;3.23;;;2.57;;
14209;SDS011;7188;56.070;12.698;2023-12-14T14:34:26;7.03;;;3.10;;
14209;SDS011;7188;56.070;12.698;2023-12-14T14:36:52;6.23;;;3.20;;
14209;SDS011;7188;56.070;12.698;2023-12-14T14:39:17;5.10;;;3.37;;
14209;SDS011;7188;56.070;12.698;2023-12-14T14:41:43;4.03;;;3.27;;
14209;SDS011;7188;56.070;12.698;2023-12-14T14:44:10;5.23;;;2.83;;
14209;SDS011;7188;56.070;12.698;2023-12-14T14:46:35;5.03;;;3.20;;
14209;SDS011;7188;56.070;12.698;2023-12-14T14:49:01;3.20;;;2.90;;
14209;SDS011;7188;56.070;12.698;2023-12-14T14:51:27;3.43;;;3.13;;
14209;SDS011;7188;56.070;12.698;2023-12-14T14:53:54;4.40;;;2.53;;
14209;SDS011;7188;56.070;12.698;2023-12-14T14:56:21;4.97;;;3.13;;
14209;SDS011;7188;56.070;12.698;2023-12-14T14:58:46;5.40;;;3.03;;
14209;SDS011;7188;56.070;12.698;2023-12-14T15:01:12;3.70;;;2.70;;
14209;SDS011;7188;56.070;12.698;2023-12-14T15:03:38;3.23;;;2.93;;
14209;SDS011;7188;56.070;12.698;2023-12-14T15:06:03;3.17;;;2.67;;